Flight Track Log - Related Links

Times and Time Zones

All times are in EST time to prevent confusion due to time zone crossing. See the N143DE flight status page for this flight to view local times or setup timezone preferences in your user account.

Time Position Orientation Groundspeed Altitude Reporting Facility
EST Latitude Longitude Course Direction KTS MPH feet Rate Location/Type
Sat 08:44:00 25.8003 -80.2744 50° Northeast 139 160 800  Level Miami Center
Sat 08:44:49 25.8239 -80.2431 50° Northeast 167 192 2,400 1,881 Climbing Miami Center
Sat 08:45:07 25.8369 -80.2247 52° Northeast 160 184 2,900 1,745 Climbing Miami Center
Sat 08:45:44 25.8519 -80.2092 43° Northeast 167 192 4,000 1,700 Climbing Miami Center
Sat 08:46:07 25.8692 -80.1842 53° Northeast 176 203 4,600 1,475 Climbing Miami Center
Sat 08:46:45 25.8961 -80.1872 354° North 207 238 5,500 1,300 Climbing Miami Center
Sat 08:47:07 25.9256 -80.1881 359° North 205 236 5,900 1,400 Climbing Miami Center
Sat 08:47:45 25.9522 -80.2003 338° Northwest 200 230 6,900 1,200 Climbing Miami Center
Sat 08:48:07 25.9817 -80.2011 359° North 229 264 7,100 1,180 Climbing Miami Center
Sat 08:48:46 26.0017 -80.2317 306° West 214 246 8,100 1,400 Climbing Miami Center
Sat 08:49:07 26.0158 -80.2553 304° West 220 253 8,500 1,574 Climbing Miami Center
Sat 08:49:47 26.0317 -80.2928 295° West 211 243 9,700 1,300 Climbing Miami Center
Sat 08:50:07 26.0522 -80.3072 328° Northwest 219 252 9,800 1,275 Climbing Miami Center
Sat 08:51:07 26.0997 -80.3339 333° Northwest 205 236 11,400 1,300 Climbing Miami Center
Sat 08:53:07 26.2111 -80.3928 335° Northwest 217 250 13,700 1,133 Climbing Miami Center
Sat 08:54:07 26.2564 -80.4219 330° Northwest 217 250 14,800 950 Climbing Miami Center
Sat 08:55:07 26.3203 -80.4539 336° Northwest 217 250 15,600 850 Climbing Miami Center
Sat 08:56:07 26.3758 -80.4811 336° Northwest 235 270 16,500 1,050 Climbing Miami Center
Sat 08:57:07 26.4292 -80.5244 324° Northwest 224 258 17,700 950 Climbing Miami Center
Sat 08:58:07 26.4742 -80.5631 322° Northwest 219 252 18,400 950 Climbing Miami Center
Sat 08:59:07 26.5406 -80.5792 348° North 219 252 19,600 1,000 Climbing Miami Center
Sat 09:00:07 26.5922 -80.6017 339° North 219 252 20,400 900 Climbing Miami Center
Sat 09:01:07 26.6564 -80.6222 344° North 226 260 21,400 900 Climbing Miami Center
Sat 09:02:07 26.7081 -80.6447 339° North 220 253 22,200 800 Climbing Miami Center
Sat 09:03:07 26.7700 -80.6678 342° North 208 239 23,000 700 Climbing Miami Center
Sat 09:04:07 26.8236 -80.6928 337° Northwest 208 239 23,600 600 Climbing Miami Center
Sat 09:05:07 26.8794 -80.7156 340° North 208 239 24,200 600 Climbing Miami Center
Sat 09:06:07 26.9333 -80.7361 341° North 208 239 24,800 600 Climbing Miami Center
Sat 09:07:07 26.9892 -80.7542 344° North 208 239 25,400 500 Climbing Miami Center
Sat 09:08:07 27.0428 -80.7769 339° North 208 239 25,800 450 Climbing Miami Center
Sat 09:09:07 27.0986 -80.7950 344° North 208 239 26,300 450 Climbing Miami Center
Sat 09:10:07 27.1544 -80.8158 342° North 208 239 26,700 350 Climbing Miami Center
Sat 09:11:07 27.2103 -80.8364 342° North 208 239 27,000 200 Climbing Miami Center
Sat 09:12:07 27.2703 -80.8569 343° North 208 239 27,100 50 Climbing Miami Center
Sat 09:13:07 27.3281 -80.8800 340° North 220 253 27,100 -50 Level Miami Center
Sat 09:14:07 27.3900 -80.9033 342° North 226 260 27,000 -50 Descending Miami Center
Sat 09:15:07 27.4561 -80.9244 344° North 231 266 27,000  Level Miami Center
Sat 09:16:07 27.5203 -80.9500 341° North 236 272 27,000  Level Miami Center
Sat 09:17:07 27.5842 -80.9733 342° North 236 272 27,000  Level Miami Center
Sat 09:18:07 27.6483 -80.9967 342° North 241 277 27,000  Level Miami Center
Sat 09:19:07 27.7103 -81.0225 340° North 241 277 27,000  Level Miami Center
Sat 09:20:07 27.7722 -81.0436 343° North 241 277 27,000  Level Miami Center
Sat 09:21:07 27.8361 -81.0669 342° North 241 277 27,000  Level Miami Center
Sat 09:22:07 27.9003 -81.0928 340° North 241 277 27,000  Level Miami Center
Sat 09:23:07 27.9619 -81.1164 341° North 241 277 27,000  Level Miami Center
Sat 09:24:07 28.0322 -81.1425 342° North 236 272 27,000  Level Miami Center
Sat 09:25:07 28.0961 -81.1683 340° North 236 272 27,000  Level Miami Center
Sat 09:26:07 28.1603 -81.1897 344° North 236 272 27,000  Level Miami Center
Sat 09:27:07 28.2158 -81.2131 340° North 242 278 27,000  Level Miami Center
Sat 09:29:23 28.3733 -81.2719 342° North 246 283 27,000  Level Jacksonville Center
Sat 09:30:23 28.4364 -81.2944 343° North 246 283 27,000  Level Jacksonville Center
Sat 09:31:23 28.4992 -81.3194 341° North 246 283 27,000 50 Level Jacksonville Center
Sat 09:32:23 28.5664 -81.3444 342° North 246 283 27,100 50 Climbing Jacksonville Center
Sat 09:33:23 28.6292 -81.3669 343° North 246 283 27,100 -50 Level Jacksonville Center
Sat 09:34:23 28.6942 -81.3897 343° North 246 283 27,000  Descending Jacksonville Center
Sat 09:35:23 28.7569 -81.4147 341° North 246 283 27,100 50 Climbing Jacksonville Center
Sat 09:36:23 28.8219 -81.4375 343° North 246 283 27,100  Level Jacksonville Center
Sat 09:37:23 28.8869 -81.4581 345° North 246 283 27,100  Level Jacksonville Center
Sat 09:38:23 28.9497 -81.4831 341° North 246 283 27,100  Level Jacksonville Center
Sat 09:39:23 29.0169 -81.5058 343° North 246 283 27,100  Level Jacksonville Center
Sat 09:40:23 29.0817 -81.5264 344° North 246 283 27,100  Level Jacksonville Center
Sat 09:41:23 29.1447 -81.5517 341° North 246 283 27,100  Level Jacksonville Center
Sat 09:42:23 29.2075 -81.5769 341° North 246 283 27,100  Level Jacksonville Center
Sat 09:43:23 29.2747 -81.6022 342° North 246 283 27,100  Level Jacksonville Center
Sat 09:44:23 29.3375 -81.6253 342° North 246 283 27,100  Level Jacksonville Center
Sat 09:45:23 29.4003 -81.6458 344° North 246 283 27,100  Level Jacksonville Center
Sat 09:46:23 29.4653 -81.6714 341° North 246 283 27,100  Level Jacksonville Center
Sat 09:47:23 29.5281 -81.6919 344° North 246 283 27,100  Level Jacksonville Center
Sat 09:48:23 29.5950 -81.7150 343° North 246 283 27,100  Level Jacksonville Center
Sat 09:49:23 29.6581 -81.7381 342° North 246 283 27,100  Level Jacksonville Center
Sat 09:50:23 29.7228 -81.7639 341° North 246 283 27,100  Level Jacksonville Center
Sat 09:51:23 29.7858 -81.7844 344° North 246 283 27,100  Level Jacksonville Center
Sat 09:52:23 29.8506 -81.8103 341° North 246 283 27,100  Level Jacksonville Center
Sat 09:53:23 29.9175 -81.8308 345° North 246 283 27,100  Level Jacksonville Center
Sat 09:54:23 29.9806 -81.8567 340° North 246 283 27,100  Level Jacksonville Center
Sat 09:55:23 30.0392 -81.8753 345° North 246 283 27,100  Level Jacksonville Center
Sat 09:56:23 30.1061 -81.8986 343° North 246 283 27,100  Level Jacksonville Center
Sat 09:57:23 30.1689 -81.9219 342° North 246 283 27,100  Level Jacksonville Center
Sat 09:58:23 30.2339 -81.9453 343° North 246 283 27,100  Level Jacksonville Center
Sat 09:59:23 30.2986 -81.9686 343° North 246 283 27,100  Level Jacksonville Center
Sat 10:00:23 30.3636 -81.9944 341° North 246 283 27,100  Level Jacksonville Center
Sat 10:01:23 30.4283 -82.0181 343° North 246 283 27,100  Level Jacksonville Center
Sat 10:02:23 30.4933 -82.0417 343° North 246 283 27,100  Level Jacksonville Center
Sat 10:03:23 30.5603 -82.0700 340° North 246 283 27,100  Level Jacksonville Center
Sat 10:04:23 30.6231 -82.0936 342° North 246 283 27,100  Level Jacksonville Center
Sat 10:05:23 30.6881 -82.1172 343° North 246 283 27,100  Level Jacksonville Center
Sat 10:06:23 30.7508 -82.1431 341° North 246 283 27,100  Level Jacksonville Center
Sat 10:07:23 30.8156 -82.1644 344° North 246 283 27,100  Level Jacksonville Center
Sat 10:08:23 30.8806 -82.1881 343° North 246 283 27,100  Level Jacksonville Center
Sat 10:09:23 30.9433 -82.2144 340° North 246 283 27,100  Level Jacksonville Center
Sat 10:10:23 31.0061 -82.2406 340° North 246 283 27,100 -50 Level Jacksonville Center
Sat 10:11:23 31.0708 -82.2644 342° North 246 283 27,000 -50 Descending Jacksonville Center
Sat 10:12:23 31.1358 -82.2858 344° North 246 283 27,000  Level Jacksonville Center
Sat 10:13:23 31.2006 -82.3097 342° North 246 283 27,000  Level Jacksonville Center
Sat 10:14:23 31.2633 -82.3336 342° North 246 283 27,000  Level Jacksonville Center
Sat 10:15:23 31.3281 -82.3575 343° North 246 283 27,000 -100 Level Jacksonville Center
Sat 10:16:23 31.3992 -82.3839 342° North 246 283 26,800 -450 Descending Jacksonville Center
Sat 10:17:23 31.4703 -82.4103 342° North 252 290 26,100 -700 Descending Jacksonville Center
Sat 10:18:23 31.5414 -82.4392 341° North 259 298 25,400 -750 Descending Jacksonville Center
Sat 10:19:23 31.6147 -82.4681 341° North 266 306 24,600 -750 Descending Jacksonville Center
Sat 10:20:23 31.6900 -82.4922 345° North 271 312 23,900 -700 Descending Jacksonville Center
Sat 10:21:23 31.7672 -82.5236 341° North 282 325 23,200 -700 Descending Jacksonville Center
Sat 10:22:23 31.8403 -82.5525 341° North 282 325 22,500 -750 Descending Jacksonville Center
Sat 10:23:23 31.9136 -82.5817 341° North 282 325 21,700 -800 Descending Jacksonville Center
Sat 10:24:23 31.9889 -82.6108 342° North 282 325 20,900 -800 Descending Jacksonville Center
Sat 10:25:23 32.0639 -82.6378 343° North 282 325 20,100 -450 Descending Jacksonville Center
Sat 10:26:23 32.1372 -82.6669 341° North 282 325 20,000 -43 Descending Jacksonville Center
Sat 10:27:41 32.2214 -82.7008 341° North 279 321 20,000  Level Atlanta Center
Sat 10:28:41 32.2906 -82.7292 341° North 268 308 20,000  Level Atlanta Center
Sat 10:29:41 32.3597 -82.7528 344° North 263 303 20,000  Level Atlanta Center
Sat 10:30:41 32.4289 -82.7814 341° North 257 296 20,000  Level Atlanta Center
Sat 10:31:41 32.4981 -82.8075 342° North 257 296 20,000  Level Atlanta Center
Sat 10:32:41 32.5508 -82.8536 324° Northwest 251 289 20,000  Level Atlanta Center
Sat 10:33:41 32.6075 -82.9069 322° Northwest 244 281 20,000 -50 Level Atlanta Center
Sat 10:34:41 32.6622 -82.9606 320° Northwest 257 296 19,900 -650 Descending Atlanta Center
Sat 10:35:41 32.7256 -83.0217 321° Northwest 269 310 18,700 -1,250 Descending Atlanta Center
Sat 10:36:41 32.7908 -83.0875 320° Northwest 280 322 17,400 -1,300 Descending Atlanta Center
Sat 10:37:41 32.8539 -83.1461 322° Northwest 285 328 16,100 -1,300 Descending Atlanta Center
Sat 10:38:41 32.9169 -83.2075 321° Northwest 285 328 14,800 -1,250 Descending Atlanta Center
Sat 10:39:41 32.9736 -83.2639 320° Northwest 285 328 13,600 -1,300 Descending Atlanta Center
Sat 10:40:41 33.0386 -83.3278 321° Northwest 290 334 12,200 -1,300 Descending Atlanta Center
Sat 10:41:41 33.1122 -83.3964 322° Northwest 295 339 11,000 -1,200 Descending Atlanta Center
Sat 10:42:41 33.1731 -83.4556 321° Northwest 295 339 9,800 -1,150 Descending Atlanta Center
Sat 10:43:41 33.2336 -83.5197 318° Northwest 289 333 8,700 -900 Descending Atlanta Center
Sat 10:44:41 33.2925 -83.5742 322° Northwest 284 327 8,000 -400 Descending Atlanta Center
Sat 10:45:41 33.3511 -83.6308 321° Northwest 279 321 7,900 -50 Descending Atlanta Center
Sat 10:46:41 33.4014 -83.6781 322° Northwest 274 315 7,900 -76 Level Atlanta Center
Sat 10:48:19 33.5000 -83.7500 329° Northwest 264 304 7,700 -481 Descending Atlanta TRACON
Sat 10:50:13 33.6333 -83.8167 337° Northwest 272 313 6,200 -600 Descending Atlanta TRACON
Sat 10:51:19 33.7167 -83.8500 342° North 254 292 5,900 -143 Descending Atlanta TRACON
Sat 10:52:19 33.7833 -83.8833 337° Northwest 246 283 5,900  Level Atlanta TRACON
Sat 10:53:19 33.8500 -83.9000 348° North 244 281 5,900  Level Atlanta TRACON
Sat 10:54:19 33.9000 -83.9500 320° Northwest 234 269 5,900  Level Atlanta TRACON
Sat 10:55:19 33.9500 -84.0000 320° Northwest 237 273 5,900 -250 Level Atlanta TRACON
Sat 10:56:19 34.0000 -84.0500 320° Northwest 238 274 5,400 -632 Descending Atlanta TRACON
Sat 10:57:13 34.0167 -84.1167 287° West 221 254 4,700 -737 Descending Atlanta TRACON
Sat 10:58:13 34.0333 -84.1833 287° West 218 251 4,000 -381 Descending Atlanta TRACON
Sat 10:59:19 34.0333 -84.2667 270° West 195 224 3,900 -50 Descending Atlanta TRACON
Sat 11:00:13 34.0500 -84.3167 292° West 191 220 3,900  Level Atlanta TRACON
Sat 11:01:13 34.0500 -84.3833 270° West 190 219 3,900  Level Atlanta TRACON
Sat 11:02:13 34.0500 -84.4333 270° West 187 215 3,900  Level Atlanta TRACON
Sat 11:03:13 34.0667 -84.5000 287° West 191 220 3,900 -476 Level Atlanta TRACON
Sat 11:04:19 34.0667 -84.5833 270° West 206 237 2,900 -381 Descending Atlanta TRACON
Sat 11:05:19 34.0667 -84.6333 270° West 177 204 3,100 -250 Climbing Atlanta TRACON
Sat 11:06:19 34.0333 -84.6500 203° Southwest 139 160 2,400 -400 Descending Atlanta TRACON
Sat 11:07:19 34.0000 -84.6500 180° South 141 162 2,300 -50 Descending Atlanta TRACON
Sat 11:08:19 34.0000 -84.6500 180° South 130 150 2,300  Level Atlanta TRACON

Login

Don't have an account? Register now (free) for customized features, flight alerts, and more!